Chang Sheng — V3PK — position and weather

sailwx.info

Track history (hours):
 
Tides and Currents Weather Stations Pressure Air Temp Water Temp Dewpoint Dewpoint Depression Visibility Wind Speed Wind Dir Waves Ship Positions

Chang Sheng

Last reported at 2016-Jun-21 11:33 UTC. Time now 2016-Jul-02 02:17 UTC.
Position N 36°47' E 123°33'.
Warning: this ship's position is 10 days out of date.

Length 86 m; draft 5.2 m.

Type: Cargo ship. MMSI: 312161000.

Date/timePositionNaut miles runAvg speedWind from/ knotsBaromVisibWave heightAir tempDewpointWater temp
2016-Jun-21 11:33N 36°47' E 123°33'16 7.9
2016-Jun-21 09:33N 37°00' E 123°22'17 8.2
2016-Jun-21 07:28N 37°15' E 123°11'9 8.9
2016-Jun-21 06:30N 37°23' E 123°06'39 9.0
2016-Jun-21 02:13N 37°49' E 122°30'225 8.7
2016-Jun-20 00:20N 38°57' E 117°56'7 8.8
2016-Jun-19 23:33N 38°58' E 117°47'1 0.6
2016-Jun-19 21:27N 38°59' E 117°46'0 0.0
2016-Jun-19 20:33N 38°59' E 117°46'0 0.0
2016-Jun-19 19:21N 38°59' E 117°46'0 0.0
2016-Jun-19 18:33N 38°59' E 117°46'0 0.0
2016-Jun-19 17:21N 38°59' E 117°46'0 0.0
2016-Jun-19 16:33N 38°59' E 117°46'0 0.0
2016-Jun-19 15:33N 38°59' E 117°46'0 0.0
2016-Jun-19 13:33N 38°59' E 117°46'0 0.0
2016-Jun-19 12:33N 38°59' E 117°46'0 0.0
2016-Jun-19 11:33N 38°59' E 117°46'0 0.0
2016-Jun-19 10:33N 38°59' E 117°46'0 0.0
2016-Jun-19 09:33N 38°59' E 117°46'0 0.0
2016-Jun-19 08:27N 38°59' E 117°46'0 0.0
2016-Jun-19 07:21N 38°59' E 117°46'0 0.0
2016-Jun-19 05:21N 38°59' E 117°46'0 0.0
2016-Jun-19 04:21N 38°59' E 117°46'0 0.0
2016-Jun-19 03:27N 38°59' E 117°46'0 0.0
2016-Jun-19 02:21N 38°59' E 117°46'3 4.0
2016-Jun-19 01:33N 38°58' E 117°50'9 1.2
2016-Jun-18 18:33N 38°57' E 118°01'97 9.7
2016-Jun-18 08:33N 38°20' E 119°55'10 9.8
2016-Jun-18 07:34N 38°15' E 120°06'1110.3
2016-Jun-18 06:32N 38°10' E 120°18'1111.0
2016-Jun-18 05:33N 38°04' E 120°29'1211.8
2016-Jun-18 04:33N 38°02' E 120°44'1212.2
2016-Jun-18 03:33N 37°59' E 120°59'1211.6
2016-Jun-18 02:29N 37°50' E 121°09'17 0.4
2016-Jun-16 05:32N 37°40' E 121°26'20 2.7
2016-Jun-15 22:17N 37°40' E 121°51'6 7.8
2016-Jun-15 21:33N 37°40' E 121°58'8 7.7
2016-Jun-15 20:34N 37°40' E 122°08'8 7.9
2016-Jun-15 19:34N 37°40' E 122°18'8 8.0
2016-Jun-15 18:33N 37°40' E 122°28'  
Track history (hours):
 
Tides and Currents Weather Stations Pressure Air Temp Water Temp Dewpoint Dewpoint Depression Visibility Wind Speed Wind Dir Waves Ship Positions

Chang Sheng

Last reported at 2016-Jun-21 11:33 UTC. Time now 2016-Jul-02 02:17 UTC.
Position N 36°47' E 123°33'.
Warning: this ship's position is 10 days out of date.

Length 86 m; draft 5.2 m.

Type: Cargo ship. MMSI: 312161000.

Date/timePositionNaut miles runAvg speedWind from/ knotsBaromVisibWave heightAir tempDewpointWater temp
2016-Jun-21 11:33N 36°47' E 123°33'16 7.9
2016-Jun-21 09:33N 37°00' E 123°22'17 8.2
2016-Jun-21 07:28N 37°15' E 123°11'9 8.9
2016-Jun-21 06:30N 37°23' E 123°06'39 9.0
2016-Jun-21 02:13N 37°49' E 122°30'225 8.7
2016-Jun-20 00:20N 38°57' E 117°56'7 8.8
2016-Jun-19 23:33N 38°58' E 117°47'1 0.6
2016-Jun-19 21:27N 38°59' E 117°46'0 0.0
2016-Jun-19 20:33N 38°59' E 117°46'0 0.0
2016-Jun-19 19:21N 38°59' E 117°46'0 0.0
2016-Jun-19 18:33N 38°59' E 117°46'0 0.0
2016-Jun-19 17:21N 38°59' E 117°46'0 0.0
2016-Jun-19 16:33N 38°59' E 117°46'0 0.0
2016-Jun-19 15:33N 38°59' E 117°46'0 0.0
2016-Jun-19 13:33N 38°59' E 117°46'0 0.0
2016-Jun-19 12:33N 38°59' E 117°46'0 0.0
2016-Jun-19 11:33N 38°59' E 117°46'0 0.0
2016-Jun-19 10:33N 38°59' E 117°46'0 0.0
2016-Jun-19 09:33N 38°59' E 117°46'0 0.0
2016-Jun-19 08:27N 38°59' E 117°46'0 0.0
2016-Jun-19 07:21N 38°59' E 117°46'0 0.0
2016-Jun-19 05:21N 38°59' E 117°46'0 0.0
2016-Jun-19 04:21N 38°59' E 117°46'0 0.0
2016-Jun-19 03:27N 38°59' E 117°46'0 0.0
2016-Jun-19 02:21N 38°59' E 117°46'3 4.0
2016-Jun-19 01:33N 38°58' E 117°50'9 1.2
2016-Jun-18 18:33N 38°57' E 118°01'97 9.7
2016-Jun-18 08:33N 38°20' E 119°55'10 9.8
2016-Jun-18 07:34N 38°15' E 120°06'1110.3
2016-Jun-18 06:32N 38°10' E 120°18'1111.0
2016-Jun-18 05:33N 38°04' E 120°29'1211.8
2016-Jun-18 04:33N 38°02' E 120°44'1212.2
2016-Jun-18 03:33N 37°59' E 120°59'1211.6
2016-Jun-18 02:29N 37°50' E 121°09'17 0.4
2016-Jun-16 05:32N 37°40' E 121°26'20 2.7
2016-Jun-15 22:17N 37°40' E 121°51'6 7.8
2016-Jun-15 21:33N 37°40' E 121°58'8 7.7
2016-Jun-15 20:34N 37°40' E 122°08'8 7.9
2016-Jun-15 19:34N 37°40' E 122°18'8 8.0
2016-Jun-15 18:33N 37°40' E 122°28'  

Dump ship's entire track history